Time;durP1;ratioP1;P1;durP2;ratioP2;P2;SDS_P1;SDS_P2;PMS_P1;PMS_P2;Temp;Humidity;BMP_temperature;BMP_pressure;BME280_temperature;BME280_humidity;BME280_pressure;Samples;Min_cycle;Max_cycle;Signal;HPM_P1;HPM_P2
2023/08/27 00:01:06;;;;;;;1.67;1.17;;;;;;;16.01;82.91;100291.47;5084655;28;20213;-84
2023/08/27 00:03:32;;;;;;;2.80;1.30;;;;;;;16.03;82.50;100288.63;5090363;28;20205;-84
2023/08/27 00:05:59;;;;;;;1.60;1.50;;;;;;;16.05;82.69;100287.50;5084153;28;20218;-82
2023/08/27 00:08:27;;;;;;;3.43;1.40;;;;;;;16.02;83.05;100282.41;5089518;28;20240;-84
2023/08/27 00:10:57;;;;;;;2.90;1.70;;;;;;;16.02;83.20;100284.25;5088269;28;20236;-84
2023/08/27 00:13:24;;;;;;;2.40;1.53;;;;;;;16.03;83.33;100294.00;5088556;28;20208;-83
2023/08/27 00:15:50;;;;;;;2.70;1.20;;;;;;;16.03;83.80;100296.69;5086378;28;20704;-84
2023/08/27 00:18:17;;;;;;;1.30;1.10;;;;;;;16.02;84.10;100303.91;5089811;28;20227;-85
2023/08/27 00:20:46;;;;;;;1.17;1.07;;;;;;;16.04;83.73;100290.34;5086787;28;20206;-85
2023/08/27 00:23:13;;;;;;;2.40;1.00;;;;;;;16.06;83.25;100266.88;5089075;28;20202;-86
2023/08/27 00:25:42;;;;;;;2.20;1.20;;;;;;;16.09;82.10;100258.53;5086410;28;20224;-85
2023/08/27 00:28:08;;;;;;;1.50;1.03;;;;;;;16.14;81.15;100257.09;5089120;28;20223;-82
2023/08/27 00:30:35;;;;;;;1.67;1.10;;;;;;;16.17;81.05;100264.03;5087625;28;20644;-84
2023/08/27 00:33:01;;;;;;;1.43;0.90;;;;;;;16.20;81.05;100275.34;5086909;28;20582;-85
2023/08/27 00:35:28;;;;;;;1.53;1.10;;;;;;;16.23;80.68;100266.16;5086951;28;20703;-85
2023/08/27 00:37:54;;;;;;;1.77;1.27;;;;;;;16.26;80.51;100271.25;5087360;28;20233;-84
2023/08/27 00:40:21;;;;;;;2.23;1.40;;;;;;;16.29;80.79;100260.22;5091154;28;20206;-82
2023/08/27 00:42:48;;;;;;;6.00;2.00;;;;;;;16.33;81.31;100258.94;5082582;28;20202;-83
2023/08/27 00:45:15;;;;;;;5.20;1.80;;;;;;;16.42;83.52;100257.22;5085373;28;20228;-83
2023/08/27 00:47:45;;;;;;;2.83;1.77;;;;;;;16.48;85.36;100253.97;5087288;28;20719;-82
2023/08/27 00:50:12;;;;;;;3.23;1.73;;;;;;;16.53;87.29;100254.38;5092954;28;20634;-83
2023/08/27 00:52:38;;;;;;;3.03;1.73;;;;;;;16.57;88.35;100253.09;5080212;28;20208;-84
2023/08/27 00:55:06;;;;;;;2.20;1.47;;;;;;;16.56;89.26;100244.19;5083575;28;20212;-81
2023/08/27 00:57:33;;;;;;;2.37;1.50;;;;;;;16.58;90.32;100244.88;5083153;28;20223;-84
2023/08/27 01:00:01;;;;;;;2.43;1.30;;;;;;;16.54;90.71;100243.47;5085581;28;20254;-84
2023/08/27 01:02:28;;;;;;;2.67;1.70;;;;;;;16.54;91.73;100256.91;5079826;28;20227;-83
2023/08/27 01:04:54;;;;;;;2.23;1.50;;;;;;;16.53;92.50;100255.22;5084371;28;20223;-85
2023/08/27 01:07:32;;;;;;;2.97;1.30;;;;;;;16.52;93.50;100253.53;5081962;28;20236;-86
2023/08/27 01:10:05;;;;;;;2.37;1.43;;;;;;;16.51;94.17;100249.13;5083227;28;20628;-86
2023/08/27 01:12:36;;;;;;;2.87;1.60;;;;;;;16.50;94.06;100235.84;5086262;28;20261;-85
2023/08/27 01:15:08;;;;;;;2.23;1.50;;;;;;;16.49;94.79;100228.75;5084273;28;20685;-85
2023/08/27 01:17:36;;;;;;;2.33;1.70;;;;;;;16.48;95.06;100210.97;5081198;28;20229;-83
2023/08/27 01:20:05;;;;;;;3.27;1.67;;;;;;;16.48;94.80;100208.28;5085323;28;20325;-83
2023/08/27 01:22:33;;;;;;;1.77;1.37;;;;;;;16.45;94.39;100195.13;5089697;28;20675;-84
2023/08/27 01:24:59;;;;;;;2.57;1.80;;;;;;;16.39;93.16;100201.91;5079967;28;20209;-82
2023/08/27 01:27:30;;;;;;;1.60;1.50;;;;;;;16.32;93.47;100207.00;5083771;28;20231;-83
2023/08/27 01:30:13;;;;;;;2.97;1.60;;;;;;;16.31;93.39;100199.09;5083466;28;20692;-83
2023/08/27 01:32:47;;;;;;;2.47;1.87;;;;;;;16.30;94.42;100192.88;5086107;28;20207;-84
2023/08/27 01:35:15;;;;;;;2.07;1.90;;;;;;;16.29;94.53;100188.53;5084787;28;20203;-83
2023/08/27 01:37:43;;;;;;;2.40;1.83;;;;;;;16.30;94.92;100186.69;5087399;28;20276;-85
2023/08/27 01:40:10;;;;;;;4.83;2.10;;;;;;;16.28;95.33;100194.03;5085433;28;20215;-83
2023/08/27 01:42:37;;;;;;;4.13;1.77;;;;;;;16.26;94.83;100212.13;5089691;28;20210;-83
2023/08/27 01:45:06;;;;;;;2.80;1.73;;;;;;;16.22;94.67;100205.34;5084530;28;20226;-83
2023/08/27 01:47:32;;;;;;;4.00;1.90;;;;;;;16.19;94.74;100201.09;5086629;28;20231;-83
2023/08/27 01:49:59;;;;;;;2.47;1.87;;;;;;;16.16;94.90;100181.75;5082601;28;20210;-82
2023/08/27 01:52:25;;;;;;;2.20;2.00;;;;;;;16.15;94.98;100191.63;5086796;28;20203;-83
2023/08/27 01:54:53;;;;;;;2.50;1.70;;;;;;;16.14;94.94;100191.78;5091213;28;20223;-82
2023/08/27 01:57:19;;;;;;;2.57;2.00;;;;;;;16.11;94.73;100187.56;5091533;28;20221;-83
2023/08/27 01:59:46;;;;;;;4.17;1.80;;;;;;;16.10;95.22;100187.72;5084790;28;20206;-82
2023/08/27 02:02:12;;;;;;;1.70;1.50;;;;;;;16.09;95.78;100189.53;5082273;28;20824;-83
2023/08/27 02:04:39;;;;;;;1.97;1.50;;;;;;;16.08;95.75;100198.59;5090707;28;20887;-86
2023/08/27 02:07:05;;;;;;;1.53;1.40;;;;;;;16.08;95.80;100197.75;5085658;28;20866;-84
2023/08/27 02:09:32;;;;;;;3.60;1.83;;;;;;;16.07;96.35;100209.47;5090643;28;20204;-83
2023/08/27 02:12:00;;;;;;;3.03;1.80;;;;;;;16.06;96.41;100197.88;5093068;28;20207;-84
2023/08/27 02:14:26;;;;;;;4.53;2.30;;;;;;;16.04;96.56;100202.53;5085713;28;20212;-84
2023/08/27 02:16:52;;;;;;;2.23;1.83;;;;;;;16.04;96.76;100207.06;5095839;28;20887;-85
2023/08/27 02:19:19;;;;;;;2.50;1.80;;;;;;;16.00;96.85;100197.59;5092242;28;20250;-82
2023/08/27 02:21:45;;;;;;;2.13;1.77;;;;;;;15.96;96.46;100197.88;5094136;28;20590;-84
2023/08/27 02:24:12;;;;;;;3.33;2.17;;;;;;;15.86;95.83;100202.41;5091085;28;20779;-82
2023/08/27 02:26:38;;;;;;;2.77;1.90;;;;;;;15.78;95.64;100212.16;5092948;28;20685;-82
2023/08/27 02:29:06;;;;;;;1.63;1.47;;;;;;;15.70;95.61;100222.75;5093525;28;20553;-84
2023/08/27 02:31:33;;;;;;;1.67;1.57;;;;;;;15.61;95.66;100213.69;5095090;28;20237;-82
2023/08/27 02:34:00;;;;;;;2.30;2.00;;;;;;;15.57;95.99;100209.63;5096398;28;20851;-82
2023/08/27 02:36:26;;;;;;;2.17;1.50;;;;;;;15.48;96.14;100205.03;5093289;28;20221;-82
2023/08/27 02:38:54;;;;;;;2.53;1.50;;;;;;;15.41;96.55;100210.09;5086863;28;20214;-83
2023/08/27 02:41:20;;;;;;;3.37;1.70;;;;;;;15.37;97.26;100197.13;5093679;28;20220;-81
2023/08/27 02:43:47;;;;;;;2.20;1.93;;;;;;;15.34;97.69;100192.88;5094032;28;20294;-83
2023/08/27 02:46:14;;;;;;;2.80;2.20;;;;;;;15.35;98.39;100188.38;5093119;28;20226;-85
2023/08/27 02:48:41;;;;;;;3.20;2.03;;;;;;;15.34;99.39;100195.56;5092052;28;20683;-85
2023/08/27 02:51:07;;;;;;;2.87;2.03;;;;;;;15.35;99.57;100181.16;5082466;28;20588;-83
2023/08/27 02:53:34;;;;;;;2.43;2.10;;;;;;;15.36;100.00;100171.28;5091479;28;20229;-84
2023/08/27 02:56:00;;;;;;;2.37;2.17;;;;;;;15.36;99.87;100163.22;5090716;28;20817;-84
2023/08/27 02:58:27;;;;;;;2.10;1.80;;;;;;;15.35;100.00;100159.69;5094320;28;20694;-82
2023/08/27 03:00:53;;;;;;;2.63;1.80;;;;;;;15.37;100.00;100151.50;5087363;28;20780;-83
2023/08/27 03:03:21;;;;;;;1.90;1.70;;;;;;;15.38;100.00;100154.06;5089141;28;20207;-82
2023/08/27 03:05:48;;;;;;;1.70;1.60;;;;;;;15.40;100.00;100151.25;5082202;28;20271;-81
2023/08/27 03:08:14;;;;;;;1.87;1.70;;;;;;;15.39;100.00;100147.72;5091608;28;20220;-81
2023/08/27 03:10:41;;;;;;;2.20;1.70;;;;;;;15.37;100.00;100151.50;5093501;28;20218;-83
2023/08/27 03:13:07;;;;;;;2.40;1.70;;;;;;;15.34;99.44;100160.69;5094335;28;20207;-84
2023/08/27 03:15:33;;;;;;;3.33;2.10;;;;;;;15.31;98.98;100146.69;5093878;28;20214;-81
2023/08/27 03:18:00;;;;;;;4.53;2.23;;;;;;;15.28;98.96;100151.34;5090804;28;20230;-83
2023/08/27 03:20:28;;;;;;;2.93;2.10;;;;;;;15.28;98.59;100150.50;5096191;28;20539;-83
2023/08/27 03:22:54;;;;;;;2.67;1.80;;;;;;;15.22;98.22;100149.25;5093805;28;20209;-82
2023/08/27 03:25:21;;;;;;;3.30;2.37;;;;;;;15.19;98.56;100152.19;5094508;28;20202;-82
2023/08/27 03:27:47;;;;;;;3.13;1.73;;;;;;;15.16;99.03;100146.25;5093625;28;20241;-85
2023/08/27 03:30:14;;;;;;;2.53;2.00;;;;;;;15.15;99.63;100153.47;5089584;28;20201;-85
2023/08/27 03:32:40;;;;;;;7.33;1.90;;;;;;;15.14;100.00;100156.28;5083513;28;20212;-84
2023/08/27 03:35:07;;;;;;;2.37;2.03;;;;;;;15.15;100.00;100166.88;5089900;28;20659;-82
2023/08/27 03:37:35;;;;;;;2.03;1.87;;;;;;;15.16;100.00;100160.50;5090881;28;20271;-83
2023/08/27 03:40:02;;;;;;;2.50;1.90;;;;;;;15.18;100.00;100149.66;5087927;28;20209;-82
2023/08/27 03:42:28;;;;;;;2.37;1.93;;;;;;;15.18;99.95;100134.41;5084890;28;20196;-83
2023/08/27 03:44:55;;;;;;;4.07;2.03;;;;;;;15.18;99.65;100134.41;5089570;28;20215;-82
2023/08/27 03:47:21;;;;;;;2.27;1.80;;;;;;;15.18;100.00;100134.41;5088116;28;20604;-81
2023/08/27 03:49:48;;;;;;;2.63;1.97;;;;;;;15.20;99.87;100131.59;5089203;28;20205;-83
2023/08/27 03:52:14;;;;;;;3.37;2.13;;;;;;;15.19;99.40;100130.75;5091571;28;20802;-83
2023/08/27 03:54:42;;;;;;;2.30;1.90;;;;;;;15.19;99.88;100125.38;5088485;28;20207;-84
2023/08/27 03:57:08;;;;;;;3.30;1.77;;;;;;;15.19;99.69;100124.53;5096068;28;20220;-83
2023/08/27 03:59:35;;;;;;;4.17;1.93;;;;;;;15.20;99.59;100136.94;5085928;28;20210;-81
2023/08/27 04:02:01;;;;;;;2.90;1.83;;;;;;;15.20;99.44;100148.53;5084611;28;20200;-82
2023/08/27 04:04:28;;;;;;;4.13;2.17;;;;;;;15.22;99.36;100157.28;5090475;28;20201;-84
2023/08/27 04:06:55;;;;;;;3.30;1.83;;;;;;;15.23;99.68;100152.75;5092718;28;20229;-83
2023/08/27 04:09:22;;;;;;;3.97;1.83;;;;;;;15.24;99.64;100146.41;5089036;28;20657;-86
2023/08/27 04:11:50;;;;;;;2.37;2.10;;;;;;;15.26;100.00;100166.72;5082878;28;20205;-84
2023/08/27 04:14:16;;;;;;;2.90;1.90;;;;;;;15.27;100.00;100167.59;5090998;28;20216;-85
2023/08/27 04:16:43;;;;;;;9.73;2.43;;;;;;;15.26;100.00;100173.94;5088272;28;20239;-83
2023/08/27 04:19:09;;;;;;;2.33;1.77;;;;;;;15.27;100.00;100189.91;5092576;28;20208;-84
2023/08/27 04:21:36;;;;;;;3.23;2.07;;;;;;;15.29;100.00;100206.72;5092342;28;20197;-83
2023/08/27 04:24:02;;;;;;;3.40;2.30;;;;;;;15.31;100.00;100197.66;5090965;28;21025;-83
2023/08/27 04:26:29;;;;;;;3.13;2.00;;;;;;;15.29;100.00;100190.59;5084149;28;20229;-83
2023/08/27 04:28:57;;;;;;;2.13;1.93;;;;;;;15.31;100.00;100186.94;5091528;28;20206;-82
2023/08/27 04:31:23;;;;;;;3.37;2.30;;;;;;;15.34;99.88;100189.34;5092848;28;20752;-84
2023/08/27 04:33:50;;;;;;;1.80;1.70;;;;;;;15.34;100.00;100186.66;5092201;28;20201;-82
2023/08/27 04:36:16;;;;;;;2.03;1.83;;;;;;;15.34;99.98;100194.72;5092155;28;20200;-84
2023/08/27 04:38:43;;;;;;;3.10;2.33;;;;;;;15.35;99.67;100193.72;5091378;28;20220;-82
2023/08/27 04:41:09;;;;;;;2.90;2.07;;;;;;;15.36;99.54;100187.38;5091448;28;20209;-85
2023/08/27 04:43:35;;;;;;;2.83;1.83;;;;;;;15.38;99.75;100185.41;5085657;28;20216;-85
2023/08/27 04:46:04;;;;;;;2.20;2.00;;;;;;;15.38;99.61;100183.56;5088551;28;20217;-82
2023/08/27 04:48:31;;;;;;;3.67;2.13;;;;;;;15.39;99.54;100177.22;5088922;28;20460;-82
2023/08/27 04:50:58;;;;;;;2.00;1.80;;;;;;;15.39;99.47;100179.91;5091295;28;20204;-86
2023/08/27 04:53:26;;;;;;;2.10;1.90;;;;;;;15.40;99.53;100183.44;5086599;28;20200;-84
2023/08/27 04:55:53;;;;;;;3.17;2.57;;;;;;;15.41;99.28;100195.84;5084997;28;20208;-84
2023/08/27 04:58:19;;;;;;;3.20;1.87;;;;;;;15.42;99.09;100192.16;5087366;28;20225;-84
2023/08/27 05:00:46;;;;;;;2.70;1.90;;;;;;;15.42;98.91;100193.03;5092437;28;20216;-84
2023/08/27 05:03:14;;;;;;;1.93;1.77;;;;;;;15.41;98.11;100177.06;5088881;28;20619;-85
2023/08/27 05:05:40;;;;;;;3.00;1.90;;;;;;;15.41;98.21;100182.41;5085867;28;20287;-85
2023/08/27 05:08:07;;;;;;;2.27;1.90;;;;;;;15.39;97.81;100177.22;5085729;28;20229;-83
2023/08/27 05:10:33;;;;;;;2.30;2.00;;;;;;;15.40;97.82;100167.34;5090260;28;20200;-83
2023/08/27 05:13:00;;;;;;;2.23;1.90;;;;;;;15.41;97.43;100163.63;5088161;28;20210;-82
2023/08/27 05:15:26;;;;;;;3.07;2.00;;;;;;;15.41;97.61;100161.81;5089818;28;20225;-84
2023/08/27 05:17:53;;;;;;;2.43;1.87;;;;;;;15.42;97.83;100162.66;5090105;28;20228;-82
2023/08/27 05:20:20;;;;;;;2.00;1.80;;;;;;;15.44;98.01;100160.69;5090510;28;20200;-83
2023/08/27 05:22:47;;;;;;;3.67;1.93;;;;;;;15.44;98.22;100155.31;5082707;28;20223;-82
2023/08/27 05:25:13;;;;;;;2.07;1.87;;;;;;;15.46;97.97;100156.03;5084978;28;20209;-84
2023/08/27 05:27:44;;;;;;;3.07;2.27;;;;;;;15.47;97.93;100150.53;5086985;28;20236;-82
2023/08/27 05:30:13;;;;;;;7.73;3.03;;;;;;;15.49;98.38;100155.75;5090554;28;20208;-82
2023/08/27 05:32:39;;;;;;;3.13;2.20;;;;;;;15.52;98.42;100152.78;5083607;28;20206;-84
2023/08/27 05:35:06;;;;;;;2.73;1.90;;;;;;;15.54;98.36;100148.97;5092017;28;20205;-85
2023/08/27 05:37:34;;;;;;;2.80;2.30;;;;;;;15.56;98.40;100146.19;5091919;28;20220;-83
2023/08/27 05:40:01;;;;;;;2.07;1.70;;;;;;;15.59;98.59;100137.84;5090759;28;20201;-84
2023/08/27 05:42:27;;;;;;;2.20;1.80;;;;;;;15.62;98.29;100142.91;5082157;28;20205;-83
2023/08/27 05:44:54;;;;;;;4.00;2.00;;;;;;;15.63;97.54;100147.31;5091582;28;20197;-84
2023/08/27 05:47:20;;;;;;;2.00;1.83;;;;;;;15.66;97.83;100151.53;5083491;28;20230;-83
2023/08/27 05:49:46;;;;;;;2.70;1.63;;;;;;;15.69;97.22;100145.91;5089860;28;20205;-83
2023/08/27 05:52:13;;;;;;;2.20;1.63;;;;;;;15.70;96.25;100145.75;5091624;28;20209;-83
2023/08/27 05:54:41;;;;;;;2.27;1.43;;;;;;;15.71;95.86;100136.72;5094779;28;20209;-82
2023/08/27 05:57:07;;;;;;;1.67;1.47;;;;;;;15.73;95.62;100140.13;5092675;28;20217;-82
2023/08/27 05:59:34;;;;;;;1.97;1.77;;;;;;;15.75;95.40;100148.88;5091978;28;20204;-82
2023/08/27 06:02:00;;;;;;;1.83;1.73;;;;;;;15.77;95.88;100146.88;5092964;28;20208;-84
2023/08/27 06:04:27;;;;;;;4.37;1.90;;;;;;;15.81;95.93;100150.13;5092154;28;20205;-85
2023/08/27 06:06:53;;;;;;;2.83;1.77;;;;;;;15.83;95.98;100149.00;5093730;28;20924;-86
2023/08/27 06:09:20;;;;;;;2.20;1.90;;;;;;;15.86;95.81;100139.81;5093677;28;20213;-84
2023/08/27 06:11:47;;;;;;;3.70;2.00;;;;;;;15.88;95.91;100140.50;5082110;28;20220;-84
2023/08/27 06:14:14;;;;;;;3.50;1.70;;;;;;;15.91;96.32;100151.81;5091882;28;20220;-86
2023/08/27 06:16:41;;;;;;;3.53;2.17;;;;;;;15.93;96.81;100149.84;5086495;28;20655;-84
2023/08/27 06:19:07;;;;;;;2.47;1.90;;;;;;;15.97;97.16;100155.75;5085836;28;20226;-84
2023/08/27 06:21:34;;;;;;;2.30;2.10;;;;;;;15.99;97.64;100156.47;5090250;28;20230;-84
2023/08/27 06:24:00;;;;;;;4.10;2.00;;;;;;;16.02;97.59;100136.53;5092239;28;20210;-84
2023/08/27 06:26:27;;;;;;;2.03;1.70;;;;;;;16.05;98.35;100147.84;5086354;28;20212;-83
2023/08/27 06:28:54;;;;;;;2.50;2.00;;;;;;;16.08;98.47;100144.03;5091087;28;20225;-83
2023/08/27 06:31:21;;;;;;;3.17;1.90;;;;;;;16.10;98.52;100142.03;5089718;28;20577;-83
2023/08/27 06:33:47;;;;;;;2.67;1.90;;;;;;;16.12;98.45;100135.50;5093983;28;20212;-82
2023/08/27 06:36:14;;;;;;;5.23;2.20;;;;;;;16.14;98.69;100133.53;5086429;28;20204;-82
2023/08/27 06:38:40;;;;;;;3.93;1.80;;;;;;;16.18;98.78;100128.72;5091084;28;20573;-83
2023/08/27 06:41:07;;;;;;;2.23;1.93;;;;;;;16.21;98.56;100123.06;5092071;28;20199;-83
2023/08/27 06:43:33;;;;;;;2.67;2.43;;;;;;;16.23;98.71;100119.22;5091792;28;20208;-86
2023/08/27 06:46:01;;;;;;;2.90;2.03;;;;;;;16.27;98.83;100123.31;5090716;28;20203;-82
2023/08/27 06:48:27;;;;;;;3.33;2.10;;;;;;;16.33;99.27;100135.31;5094680;28;20255;-85
2023/08/27 06:50:54;;;;;;;2.20;2.00;;;;;;;16.38;99.25;100137.56;5092370;28;20200;-82
2023/08/27 06:53:20;;;;;;;3.53;2.47;;;;;;;16.40;99.37;100139.13;5090696;28;20233;-83
2023/08/27 06:55:47;;;;;;;3.40;1.90;;;;;;;16.44;99.35;100137.84;5090999;28;20215;-84
2023/08/27 06:58:13;;;;;;;2.00;1.80;;;;;;;16.45;98.29;100128.78;5086642;28;20610;-84
2023/08/27 07:00:40;;;;;;;2.97;2.00;;;;;;;16.47;97.20;100137.53;5087411;28;20645;-82
2023/08/27 07:03:08;;;;;;;2.83;1.90;;;;;;;16.49;96.79;100129.31;5091574;28;20210;-82
2023/08/27 07:05:35;;;;;;;2.97;2.00;;;;;;;16.52;96.51;100119.13;5093918;28;20595;-81
2023/08/27 07:08:02;;;;;;;2.63;1.90;;;;;;;16.55;95.86;100115.28;5093804;28;20229;-84
2023/08/27 07:10:28;;;;;;;2.27;2.07;;;;;;;16.56;95.27;100116.97;5093864;28;20204;-84
2023/08/27 07:12:55;;;;;;;3.27;1.87;;;;;;;16.60;94.77;100115.69;5091774;28;20217;-83
2023/08/27 07:15:21;;;;;;;2.73;1.90;;;;;;;16.64;94.97;100117.97;5094001;28;20216;-83
2023/08/27 07:17:47;;;;;;;3.00;2.20;;;;;;;16.72;95.11;100129.81;5085817;28;20223;-85
2023/08/27 07:20:15;;;;;;;4.00;2.17;;;;;;;16.78;94.87;100126.53;5091160;28;20208;-85
2023/08/27 07:22:42;;;;;;;2.83;2.00;;;;;;;16.81;93.97;100121.72;5087674;28;20676;-82
2023/08/27 07:25:10;;;;;;;2.67;1.67;;;;;;;16.87;94.02;100122.94;5091769;28;20207;-84
2023/08/27 07:27:36;;;;;;;4.73;2.10;;;;;;;16.95;94.34;100125.72;5091379;28;20284;-83
2023/08/27 07:30:03;;;;;;;2.83;1.87;;;;;;;17.00;93.87;100121.59;5089944;28;20763;-83
2023/08/27 07:32:30;;;;;;;2.93;1.70;;;;;;;17.04;92.74;100132.88;5086184;28;20298;-83
2023/08/27 07:34:57;;;;;;;2.30;1.87;;;;;;;17.09;92.39;100130.59;5097775;28;20211;-84
2023/08/27 07:37:24;;;;;;;2.97;1.67;;;;;;;17.17;92.20;100132.53;5087854;28;20239;-85
2023/08/27 07:39:51;;;;;;;2.73;1.77;;;;;;;17.25;91.84;100133.47;5094037;28;20213;-83
2023/08/27 07:42:17;;;;;;;3.37;1.93;;;;;;;17.34;91.71;100129.88;5091475;28;20216;-84
2023/08/27 07:44:44;;;;;;;2.10;1.90;;;;;;;17.47;91.08;100124.09;5088132;28;20212;-84
2023/08/27 07:47:10;;;;;;;3.97;1.57;;;;;;;17.61;87.77;100117.31;5091964;28;20235;-82
2023/08/27 07:49:37;;;;;;;2.73;1.57;;;;;;;17.74;86.65;100120.47;5091443;28;20575;-82
2023/08/27 07:52:04;;;;;;;1.93;1.60;;;;;;;17.85;85.12;100117.56;5094847;28;20218;-84
2023/08/27 07:54:32;;;;;;;2.87;1.57;;;;;;;17.96;85.05;100119.13;5093714;28;20216;-83
2023/08/27 07:56:58;;;;;;;2.60;1.63;;;;;;;18.09;84.69;100113.34;5088497;28;20241;-84
2023/08/27 07:59:25;;;;;;;1.60;1.40;;;;;;;18.21;82.66;100120.16;5089287;28;20211;-85
2023/08/27 08:01:51;;;;;;;1.93;1.60;;;;;;;18.35;83.06;100117.72;5088500;28;20210;-85
2023/08/27 08:04:18;;;;;;;1.60;1.50;;;;;;;18.52;84.70;100126.72;5090046;28;20206;-84
2023/08/27 08:06:45;;;;;;;2.23;1.60;;;;;;;18.68;84.00;100129.53;5088508;28;20230;-83
2023/08/27 08:09:13;;;;;;;2.17;1.67;;;;;;;18.86;83.42;100120.50;5094005;28;20837;-80
2023/08/27 08:11:41;;;;;;;1.93;1.77;;;;;;;19.02;81.47;100109.75;5094415;28;20214;-86
2023/08/27 08:14:07;;;;;;;2.87;1.90;;;;;;;19.20;81.83;100112.34;5092682;28;20203;-84
2023/08/27 08:16:34;;;;;;;3.13;1.70;;;;;;;19.36;80.56;100121.31;5090249;28;20223;-83
2023/08/27 08:19:00;;;;;;;2.33;1.30;;;;;;;19.52;79.15;100108.88;5092255;28;20344;-83
2023/08/27 08:21:27;;;;;;;1.60;1.20;;;;;;;19.62;75.65;100105.00;5091609;28;20741;-87
2023/08/27 08:23:54;;;;;;;1.60;1.20;;;;;;;19.72;72.92;100110.22;5093259;28;20279;-86
2023/08/27 08:26:21;;;;;;;2.47;1.10;;;;;;;19.81;70.85;100101.13;5090255;28;20243;-81
2023/08/27 08:28:50;;;;;;;1.50;1.00;;;;;;;19.96;68.51;100107.50;5093615;28;20234;-84
2023/08/27 08:31:16;;;;;;;4.10;1.30;;;;;;;20.07;67.64;100099.03;5085177;28;20211;-86
2023/08/27 08:33:43;;;;;;;2.83;1.37;;;;;;;20.23;66.81;100106.31;5088337;28;20214;-80
2023/08/27 08:36:10;;;;;;;3.23;1.10;;;;;;;20.38;67.78;100123.53;5087313;28;20203;-85
2023/08/27 08:38:36;;;;;;;2.63;1.33;;;;;;;20.60;64.84;100127.34;5089391;28;20259;-83
2023/08/27 08:41:05;;;;;;;2.70;1.03;;;;;;;20.71;63.91;100124.28;5087262;28;20210;-83
2023/08/27 08:43:39;;;;;;;1.83;1.13;;;;;;;20.87;62.71;100117.09;5086947;28;20208;-84
2023/08/27 08:46:08;;;;;;;3.43;1.30;;;;;;;20.98;63.30;100103.16;5090494;28;20386;-83
2023/08/27 08:48:39;;;;;;;1.87;1.00;;;;;;;21.08;64.39;100125.44;5091051;28;20277;-83
2023/08/27 08:51:07;;;;;;;2.40;1.35;;;;;;;21.18;61.48;100126.06;5088291;28;20291;-84
2023/08/27 08:53:38;;;;;;;1.42;1.13;;;;;;;21.26;62.28;100130.63;5085296;28;20217;-84
2023/08/27 08:56:07;;;;;;;1.60;1.02;;;;;;;21.32;61.72;100125.31;5093212;28;20200;-83
2023/08/27 08:58:36;;;;;;;2.67;0.95;;;;;;;21.37;60.38;100119.38;5088456;28;20237;-83
2023/08/27 09:01:03;;;;;;;1.88;1.20;;;;;;;21.44;60.96;100120.34;5088138;28;20597;-87
2023/08/27 09:03:32;;;;;;;1.50;1.10;;;;;;;21.51;60.36;100120.47;5089403;28;20200;-84
2023/08/27 09:06:00;;;;;;;3.55;1.25;;;;;;;21.64;59.23;100115.31;5086845;28;20208;-85
2023/08/27 09:08:29;;;;;;;1.58;1.02;;;;;;;21.69;57.65;100118.28;5089833;28;20227;-83
2023/08/27 09:11:02;;;;;;;1.50;1.05;;;;;;;21.77;58.29;100120.94;5086099;28;20212;-82
2023/08/27 09:13:29;;;;;;;1.08;0.98;;;;;;;21.83;59.34;100126.50;5088125;28;20208;-85
2023/08/27 09:15:55;;;;;;;1.92;1.13;;;;;;;21.91;59.00;100122.84;5089136;28;20215;-85
2023/08/27 09:18:22;;;;;;;2.35;1.30;;;;;;;21.97;58.87;100111.28;5090691;28;20845;-83
2023/08/27 09:20:51;;;;;;;2.90;1.50;;;;;;;22.05;58.39;100102.25;5083407;28;20232;-86
2023/08/27 09:23:18;;;;;;;1.85;1.38;;;;;;;22.13;59.15;100110.31;5088926;28;20647;-84
2023/08/27 09:25:45;;;;;;;1.58;1.20;;;;;;;22.20;59.32;100119.41;5089634;28;20220;-85
2023/08/27 09:28:12;;;;;;;1.40;1.30;;;;;;;22.26;58.12;100107.78;5090541;28;20249;-83
2023/08/27 09:30:38;;;;;;;2.80;1.20;;;;;;;22.31;58.98;100110.81;5092122;28;20282;-84
2023/08/27 09:33:05;;;;;;;3.80;1.63;;;;;;;22.37;58.27;100110.06;5083558;28;20581;-86
2023/08/27 09:35:40;;;;;;;2.97;1.30;;;;;;;22.47;57.55;100107.91;5087807;28;20211;-83
2023/08/27 09:38:08;;;;;;;1.77;1.30;;;;;;;22.58;56.83;100089.44;5089995;28;20219;-83
2023/08/27 09:40:34;;;;;;;1.88;1.02;;;;;;;22.73;56.87;100083.00;5085662;28;20215;-84
2023/08/27 09:43:06;;;;;;;1.63;1.00;;;;;;;22.89;56.15;100081.97;5086344;28;20215;-85
2023/08/27 09:45:33;;;;;;;1.60;1.50;;;;;;;23.03;54.99;100080.25;5090240;28;20664;-84
2023/08/27 09:48:00;;;;;;;2.38;1.15;;;;;;;23.12;55.50;100079.09;5089536;28;20228;-83
2023/08/27 09:50:28;;;;;;;4.03;1.55;;;;;;;23.22;55.50;100087.78;5091259;28;20201;-83
2023/08/27 09:53:05;;;;;;;1.95;1.08;;;;;;;23.31;53.21;100088.50;5090691;28;20208;-83
2023/08/27 09:55:33;;;;;;;1.50;1.00;;;;;;;23.22;51.81;100079.63;5091297;28;20199;-83
2023/08/27 09:58:00;;;;;;;1.42;1.10;;;;;;;23.16;52.12;100072.25;5087436;28;20306;-85
2023/08/27 10:00:28;;;;;;;1.88;0.90;;;;;;;23.23;53.10;100075.03;5093764;28;20213;-85
2023/08/27 10:02:56;;;;;;;2.58;0.98;;;;;;;23.30;52.81;100078.66;5092822;28;20208;-85
2023/08/27 10:05:27;;;;;;;2.22;0.75;;;;;;;23.34;50.80;100075.38;5094015;28;20200;-84
2023/08/27 10:07:57;;;;;;;2.75;0.70;;;;;;;23.41;51.57;100078.16;5088428;28;20310;-86
2023/08/27 10:10:25;;;;;;;3.00;1.10;;;;;;;23.53;51.91;100071.19;5093509;28;20204;-86
2023/08/27 10:12:53;;;;;;;1.90;1.00;;;;;;;23.62;51.10;100066.47;5090130;28;20217;-86
2023/08/27 10:15:20;;;;;;;1.50;0.80;;;;;;;23.73;50.93;100065.94;5090768;28;20212;-82
2023/08/27 10:17:47;;;;;;;0.80;0.80;;;;;;;23.72;50.29;100064.25;5092788;28;20227;-84
2023/08/27 10:20:16;;;;;;;2.05;1.05;;;;;;;23.74;51.80;100067.63;5088859;28;20220;-84
2023/08/27 10:22:42;;;;;;;1.23;1.10;;;;;;;23.82;51.05;100056.63;5090409;28;20211;-84
2023/08/27 10:25:10;;;;;;;1.23;0.93;;;;;;;23.96;51.46;100049.38;5092118;28;20566;-85
2023/08/27 10:27:37;;;;;;;1.60;0.85;;;;;;;24.02;51.00;100043.97;5086843;28;20215;-84
2023/08/27 10:30:07;;;;;;;1.23;1.00;;;;;;;24.02;50.00;100040.41;5090604;28;20230;-84
2023/08/27 10:32:34;;;;;;;2.78;1.15;;;;;;;23.88;48.94;100039.47;5091733;28;20230;-84
2023/08/27 10:35:00;;;;;;;1.17;0.88;;;;;;;23.74;49.46;100030.41;5094206;28;20199;-84
2023/08/27 10:37:29;;;;;;;2.30;0.90;;;;;;;23.79;51.70;100016.22;5096635;28;20220;-85
2023/08/27 10:39:57;;;;;;;0.98;0.80;;;;;;;23.82;50.19;100021.25;5094037;28;20208;-85
2023/08/27 10:42:33;;;;;;;1.80;1.00;;;;;;;23.78;49.23;100020.81;5088810;28;20261;-83
2023/08/27 10:45:15;;;;;;;1.23;0.80;;;;;;;23.70;49.75;100018.22;5088389;28;20196;-84
2023/08/27 10:47:43;;;;;;;1.45;0.90;;;;;;;23.68;49.34;100025.72;5095275;28;20224;-84
2023/08/27 10:50:10;;;;;;;1.60;0.70;;;;;;;23.65;47.60;100011.69;5096782;28;20234;-84
2023/08/27 10:52:50;;;;;;;1.33;0.73;;;;;;;23.58;46.95;100014.38;5093151;28;20204;-83
2023/08/27 10:55:21;;;;;;;1.20;0.68;;;;;;;23.60;47.78;100033.22;5096265;28;20206;-84
2023/08/27 10:57:47;;;;;;;2.28;0.70;;;;;;;23.55;47.50;100044.66;5094587;28;20783;-85
2023/08/27 11:00:16;;;;;;;1.23;0.50;;;;;;;23.51;49.83;100046.91;5093148;28;20206;-83
2023/08/27 11:02:58;;;;;;;0.88;0.60;;;;;;;23.34;49.73;100058.22;5091183;28;21484;-82
2023/08/27 11:05:29;;;;;;;0.52;0.40;;;;;;;23.09;51.95;100065.91;5090347;28;20211;-82
2023/08/27 11:07:58;;;;;;;0.60;0.60;;;;;;;22.83;52.70;100083.56;5092115;28;20223;-83
2023/08/27 11:10:31;;;;;;;1.13;0.70;;;;;;;22.53;53.87;100057.47;5087935;28;20232;-82
2023/08/27 11:12:59;;;;;;;2.08;0.75;;;;;;;22.31;54.72;100058.41;5087534;28;20895;-84
2023/08/27 11:15:31;;;;;;;1.27;0.70;;;;;;;22.17;55.90;100057.38;5090920;28;20216;-84
2023/08/27 11:17:58;;;;;;;2.30;0.70;;;;;;;21.96;57.55;100049.09;5085693;28;20227;-84
2023/08/27 11:20:26;;;;;;;1.02;0.70;;;;;;;21.87;58.84;100061.03;5093371;28;20204;-82
2023/08/27 11:22:58;;;;;;;2.00;0.90;;;;;;;21.77;59.72;100062.16;5095933;28;20215;-82
2023/08/27 11:25:26;;;;;;;1.02;0.85;;;;;;;21.63;61.40;100054.00;5094001;28;20548;-82